sensor_id;sensor_type;location;lat;lon;timestamp;P1;durP1;ratioP1;P2;durP2;ratioP2
19519;SDS011;9904;52.246;20.898;2022-07-06T00:00:05;12.80;;;10.53;;
19519;SDS011;9904;52.246;20.898;2022-07-06T00:02:32;13.80;;;11.07;;
19519;SDS011;9904;52.246;20.898;2022-07-06T00:04:58;13.83;;;10.63;;
19519;SDS011;9904;52.246;20.898;2022-07-06T00:07:25;16.27;;;11.53;;
19519;SDS011;9904;52.246;20.898;2022-07-06T00:09:52;16.00;;;11.20;;
19519;SDS011;9904;52.246;20.898;2022-07-06T00:12:18;15.50;;;11.17;;
19519;SDS011;9904;52.246;20.898;2022-07-06T00:14:45;16.37;;;10.30;;
19519;SDS011;9904;52.246;20.898;2022-07-06T00:17:11;18.87;;;11.37;;
19519;SDS011;9904;52.246;20.898;2022-07-06T00:19:38;12.83;;;10.40;;
19519;SDS011;9904;52.246;20.898;2022-07-06T00:22:05;16.30;;;11.60;;
19519;SDS011;9904;52.246;20.898;2022-07-06T00:24:31;13.13;;;9.43;;
19519;SDS011;9904;52.246;20.898;2022-07-06T00:26:58;15.53;;;9.83;;
19519;SDS011;9904;52.246;20.898;2022-07-06T00:29:24;16.87;;;11.17;;
19519;SDS011;9904;52.246;20.898;2022-07-06T00:31:51;16.23;;;10.63;;
19519;SDS011;9904;52.246;20.898;2022-07-06T00:34:17;12.87;;;10.60;;
19519;SDS011;9904;52.246;20.898;2022-07-06T00:36:44;15.17;;;10.17;;
19519;SDS011;9904;52.246;20.898;2022-07-06T00:39:10;15.10;;;10.23;;
19519;SDS011;9904;52.246;20.898;2022-07-06T00:41:37;13.73;;;10.93;;
19519;SDS011;9904;52.246;20.898;2022-07-06T00:44:06;16.43;;;11.27;;
19519;SDS011;9904;52.246;20.898;2022-07-06T00:46:35;15.13;;;9.90;;
19519;SDS011;9904;52.246;20.898;2022-07-06T00:49:02;15.27;;;10.93;;
19519;SDS011;9904;52.246;20.898;2022-07-06T00:51:29;14.33;;;10.73;;
19519;SDS011;9904;52.246;20.898;2022-07-06T00:53:58;13.73;;;11.20;;
19519;SDS011;9904;52.246;20.898;2022-07-06T00:56:25;16.00;;;10.70;;
19519;SDS011;9904;52.246;20.898;2022-07-06T00:58:53;20.10;;;11.13;;
19519;SDS011;9904;52.246;20.898;2022-07-06T01:01:19;15.43;;;10.27;;
19519;SDS011;9904;52.246;20.898;2022-07-06T01:03:46;16.67;;;11.93;;
19519;SDS011;9904;52.246;20.898;2022-07-06T01:06:13;18.33;;;11.70;;
19519;SDS011;9904;52.246;20.898;2022-07-06T01:08:39;15.13;;;11.50;;
19519;SDS011;9904;52.246;20.898;2022-07-06T01:11:06;14.13;;;11.53;;
19519;SDS011;9904;52.246;20.898;2022-07-06T01:13:33;14.77;;;11.73;;
19519;SDS011;9904;52.246;20.898;2022-07-06T01:16:00;14.80;;;10.70;;
19519;SDS011;9904;52.246;20.898;2022-07-06T01:18:26;15.87;;;10.60;;
19519;SDS011;9904;52.246;20.898;2022-07-06T01:21:04;19.83;;;11.33;;
19519;SDS011;9904;52.246;20.898;2022-07-06T01:23:38;13.80;;;10.50;;
19519;SDS011;9904;52.246;20.898;2022-07-06T01:26:09;17.87;;;10.90;;
19519;SDS011;9904;52.246;20.898;2022-07-06T01:28:37;15.87;;;10.33;;
19519;SDS011;9904;52.246;20.898;2022-07-06T01:31:03;16.97;;;10.77;;
19519;SDS011;9904;52.246;20.898;2022-07-06T01:33:30;14.37;;;10.50;;
19519;SDS011;9904;52.246;20.898;2022-07-06T01:35:57;14.03;;;10.77;;
19519;SDS011;9904;52.246;20.898;2022-07-06T01:38:23;20.67;;;12.10;;
19519;SDS011;9904;52.246;20.898;2022-07-06T01:40:50;15.03;;;9.47;;
19519;SDS011;9904;52.246;20.898;2022-07-06T01:43:17;15.17;;;10.60;;
19519;SDS011;9904;52.246;20.898;2022-07-06T01:45:43;13.57;;;11.00;;
19519;SDS011;9904;52.246;20.898;2022-07-06T01:48:10;19.57;;;11.47;;
19519;SDS011;9904;52.246;20.898;2022-07-06T01:50:36;15.17;;;10.77;;
19519;SDS011;9904;52.246;20.898;2022-07-06T01:53:03;12.17;;;10.13;;
19519;SDS011;9904;52.246;20.898;2022-07-06T01:55:30;16.63;;;9.93;;
19519;SDS011;9904;52.246;20.898;2022-07-06T01:57:56;14.33;;;9.53;;
19519;SDS011;9904;52.246;20.898;2022-07-06T02:00:23;13.70;;;9.13;;
19519;SDS011;9904;52.246;20.898;2022-07-06T02:02:49;12.23;;;9.07;;
19519;SDS011;9904;52.246;20.898;2022-07-06T02:05:16;11.67;;;9.03;;
19519;SDS011;9904;52.246;20.898;2022-07-06T02:07:42;12.90;;;8.90;;
19519;SDS011;9904;52.246;20.898;2022-07-06T02:10:09;13.80;;;8.70;;
19519;SDS011;9904;52.246;20.898;2022-07-06T02:12:35;16.27;;;9.20;;
19519;SDS011;9904;52.246;20.898;2022-07-06T02:15:02;16.00;;;9.60;;
19519;SDS011;9904;52.246;20.898;2022-07-06T02:17:29;12.00;;;8.70;;
19519;SDS011;9904;52.246;20.898;2022-07-06T02:19:55;19.23;;;10.07;;
19519;SDS011;9904;52.246;20.898;2022-07-06T02:22:22;18.20;;;10.23;;
19519;SDS011;9904;52.246;20.898;2022-07-06T02:24:48;18.40;;;10.10;;
19519;SDS011;9904;52.246;20.898;2022-07-06T02:27:15;20.80;;;11.30;;
19519;SDS011;9904;52.246;20.898;2022-07-06T02:29:41;13.20;;;8.77;;
19519;SDS011;9904;52.246;20.898;2022-07-06T02:32:08;18.23;;;10.80;;
19519;SDS011;9904;52.246;20.898;2022-07-06T02:34:34;18.33;;;11.03;;
19519;SDS011;9904;52.246;20.898;2022-07-06T02:37:01;21.23;;;11.47;;
19519;SDS011;9904;52.246;20.898;2022-07-06T02:39:28;22.57;;;11.53;;
19519;SDS011;9904;52.246;20.898;2022-07-06T02:41:54;18.97;;;11.00;;
19519;SDS011;9904;52.246;20.898;2022-07-06T02:44:21;22.80;;;10.83;;
19519;SDS011;9904;52.246;20.898;2022-07-06T02:46:47;24.90;;;11.80;;
19519;SDS011;9904;52.246;20.898;2022-07-06T02:49:14;22.23;;;11.77;;
19519;SDS011;9904;52.246;20.898;2022-07-06T02:51:40;20.77;;;10.77;;
19519;SDS011;9904;52.246;20.898;2022-07-06T02:54:07;21.33;;;11.80;;
19519;SDS011;9904;52.246;20.898;2022-07-06T02:56:33;26.23;;;11.90;;
19519;SDS011;9904;52.246;20.898;2022-07-06T02:59:00;19.63;;;11.10;;
19519;SDS011;9904;52.246;20.898;2022-07-06T03:01:26;22.47;;;10.77;;
19519;SDS011;9904;52.246;20.898;2022-07-06T03:03:53;19.50;;;10.20;;
19519;SDS011;9904;52.246;20.898;2022-07-06T03:06:20;18.77;;;10.17;;
19519;SDS011;9904;52.246;20.898;2022-07-06T03:08:46;18.90;;;10.53;;
19519;SDS011;9904;52.246;20.898;2022-07-06T03:11:13;20.90;;;11.07;;
19519;SDS011;9904;52.246;20.898;2022-07-06T03:13:39;19.20;;;11.70;;
19519;SDS011;9904;52.246;20.898;2022-07-06T03:16:06;18.40;;;11.53;;
19519;SDS011;9904;52.246;20.898;2022-07-06T03:18:32;15.80;;;10.43;;
19519;SDS011;9904;52.246;20.898;2022-07-06T03:20:59;20.40;;;11.50;;
19519;SDS011;9904;52.246;20.898;2022-07-06T03:23:26;13.53;;;9.93;;
19519;SDS011;9904;52.246;20.898;2022-07-06T03:25:53;20.30;;;11.07;;
19519;SDS011;9904;52.246;20.898;2022-07-06T03:28:19;14.57;;;9.73;;
19519;SDS011;9904;52.246;20.898;2022-07-06T03:30:46;17.87;;;10.13;;
19519;SDS011;9904;52.246;20.898;2022-07-06T03:33:13;17.53;;;10.60;;
19519;SDS011;9904;52.246;20.898;2022-07-06T03:35:39;16.47;;;9.57;;
19519;SDS011;9904;52.246;20.898;2022-07-06T03:38:06;16.03;;;10.40;;
19519;SDS011;9904;52.246;20.898;2022-07-06T03:40:33;18.70;;;10.63;;
19519;SDS011;9904;52.246;20.898;2022-07-06T03:42:59;20.93;;;10.53;;
19519;SDS011;9904;52.246;20.898;2022-07-06T03:45:26;13.90;;;9.67;;
19519;SDS011;9904;52.246;20.898;2022-07-06T03:47:53;14.33;;;9.27;;
19519;SDS011;9904;52.246;20.898;2022-07-06T03:50:19;13.73;;;9.37;;
19519;SDS011;9904;52.246;20.898;2022-07-06T03:52:46;15.53;;;9.70;;
19519;SDS011;9904;52.246;20.898;2022-07-06T03:55:13;11.57;;;9.00;;
19519;SDS011;9904;52.246;20.898;2022-07-06T03:57:40;13.20;;;8.77;;
19519;SDS011;9904;52.246;20.898;2022-07-06T04:00:07;9.97;;;8.40;;
19519;SDS011;9904;52.246;20.898;2022-07-06T04:02:35;14.20;;;8.57;;
19519;SDS011;9904;52.246;20.898;2022-07-06T04:05:02;11.33;;;8.23;;
19519;SDS011;9904;52.246;20.898;2022-07-06T04:07:28;13.80;;;9.27;;
19519;SDS011;9904;52.246;20.898;2022-07-06T04:09:55;14.47;;;9.37;;
19519;SDS011;9904;52.246;20.898;2022-07-06T04:12:22;11.53;;;8.43;;
19519;SDS011;9904;52.246;20.898;2022-07-06T04:14:51;14.07;;;10.00;;
19519;SDS011;9904;52.246;20.898;2022-07-06T04:17:18;13.70;;;9.00;;
19519;SDS011;9904;52.246;20.898;2022-07-06T04:20:04;14.57;;;8.70;;
19519;SDS011;9904;52.246;20.898;2022-07-06T04:22:31;10.13;;;7.43;;
19519;SDS011;9904;52.246;20.898;2022-07-06T04:24:57;12.03;;;7.97;;
19519;SDS011;9904;52.246;20.898;2022-07-06T04:27:24;17.53;;;8.80;;
19519;SDS011;9904;52.246;20.898;2022-07-06T04:29:50;14.53;;;9.40;;
19519;SDS011;9904;52.246;20.898;2022-07-06T04:32:19;16.87;;;9.77;;
19519;SDS011;9904;52.246;20.898;2022-07-06T04:34:51;12.80;;;9.33;;
19519;SDS011;9904;52.246;20.898;2022-07-06T04:37:17;16.50;;;9.13;;
19519;SDS011;9904;52.246;20.898;2022-07-06T04:39:44;16.37;;;10.30;;
19519;SDS011;9904;52.246;20.898;2022-07-06T04:42:10;18.27;;;11.17;;
19519;SDS011;9904;52.246;20.898;2022-07-06T04:44:37;18.20;;;10.17;;
19519;SDS011;9904;52.246;20.898;2022-07-06T04:47:04;26.63;;;17.03;;
19519;SDS011;9904;52.246;20.898;2022-07-06T04:49:30;16.30;;;11.50;;
19519;SDS011;9904;52.246;20.898;2022-07-06T04:51:57;18.93;;;12.73;;
19519;SDS011;9904;52.246;20.898;2022-07-06T04:54:24;16.13;;;12.03;;
19519;SDS011;9904;52.246;20.898;2022-07-06T04:56:50;14.93;;;10.63;;
19519;SDS011;9904;52.246;20.898;2022-07-06T04:59:17;16.23;;;9.27;;
19519;SDS011;9904;52.246;20.898;2022-07-06T05:01:43;17.03;;;9.73;;
19519;SDS011;9904;52.246;20.898;2022-07-06T05:04:10;12.37;;;8.50;;
19519;SDS011;9904;52.246;20.898;2022-07-06T05:06:37;15.43;;;8.80;;
19519;SDS011;9904;52.246;20.898;2022-07-06T05:09:04;13.30;;;8.90;;
19519;SDS011;9904;52.246;20.898;2022-07-06T05:11:30;12.50;;;7.77;;
19519;SDS011;9904;52.246;20.898;2022-07-06T05:13:57;12.67;;;6.73;;
19519;SDS011;9904;52.246;20.898;2022-07-06T05:16:24;12.20;;;6.83;;
19519;SDS011;9904;52.246;20.898;2022-07-06T05:18:50;9.63;;;6.40;;
19519;SDS011;9904;52.246;20.898;2022-07-06T05:21:17;11.27;;;6.67;;
19519;SDS011;9904;52.246;20.898;2022-07-06T05:23:43;9.37;;;6.00;;
19519;SDS011;9904;52.246;20.898;2022-07-06T05:26:10;21.93;;;10.17;;
19519;SDS011;9904;52.246;20.898;2022-07-06T05:28:36;13.07;;;8.97;;
19519;SDS011;9904;52.246;20.898;2022-07-06T05:31:03;17.53;;;7.87;;
19519;SDS011;9904;52.246;20.898;2022-07-06T05:33:30;16.03;;;8.93;;
19519;SDS011;9904;52.246;20.898;2022-07-06T05:35:56;25.50;;;13.60;;
19519;SDS011;9904;52.246;20.898;2022-07-06T05:38:23;19.63;;;12.23;;
19519;SDS011;9904;52.246;20.898;2022-07-06T05:40:51;19.73;;;11.57;;
19519;SDS011;9904;52.246;20.898;2022-07-06T05:43:17;19.77;;;10.73;;
19519;SDS011;9904;52.246;20.898;2022-07-06T05:45:44;19.87;;;10.80;;
19519;SDS011;9904;52.246;20.898;2022-07-06T05:48:11;20.93;;;10.57;;
19519;SDS011;9904;52.246;20.898;2022-07-06T05:50:56;15.57;;;8.70;;
19519;SDS011;9904;52.246;20.898;2022-07-06T05:53:23;17.67;;;8.57;;
19519;SDS011;9904;52.246;20.898;2022-07-06T05:55:49;15.33;;;8.90;;
19519;SDS011;9904;52.246;20.898;2022-07-06T05:58:16;14.80;;;7.67;;
19519;SDS011;9904;52.246;20.898;2022-07-06T06:00:42;13.60;;;6.30;;
19519;SDS011;9904;52.246;20.898;2022-07-06T06:03:09;11.77;;;5.80;;
19519;SDS011;9904;52.246;20.898;2022-07-06T06:05:36;7.07;;;5.00;;
19519;SDS011;9904;52.246;20.898;2022-07-06T06:08:02;15.37;;;4.60;;
19519;SDS011;9904;52.246;20.898;2022-07-06T06:10:29;6.50;;;4.10;;
19519;SDS011;9904;52.246;20.898;2022-07-06T06:12:56;6.17;;;3.10;;
19519;SDS011;9904;52.246;20.898;2022-07-06T06:15:23;9.30;;;3.23;;
19519;SDS011;9904;52.246;20.898;2022-07-06T06:17:49;6.07;;;3.80;;
19519;SDS011;9904;52.246;20.898;2022-07-06T06:20:16;11.63;;;3.97;;
19519;SDS011;9904;52.246;20.898;2022-07-06T06:22:43;10.33;;;3.53;;
19519;SDS011;9904;52.246;20.898;2022-07-06T06:25:18;7.97;;;3.60;;
19519;SDS011;9904;52.246;20.898;2022-07-06T06:27:45;13.07;;;3.67;;
19519;SDS011;9904;52.246;20.898;2022-07-06T06:30:12;8.97;;;3.07;;
19519;SDS011;9904;52.246;20.898;2022-07-06T06:32:39;7.20;;;2.93;;
19519;SDS011;9904;52.246;20.898;2022-07-06T06:35:06;7.30;;;2.30;;
19519;SDS011;9904;52.246;20.898;2022-07-06T06:37:33;9.37;;;2.40;;
19519;SDS011;9904;52.246;20.898;2022-07-06T06:40:00;10.70;;;3.07;;
19519;SDS011;9904;52.246;20.898;2022-07-06T06:42:27;11.60;;;2.90;;
19519;SDS011;9904;52.246;20.898;2022-07-06T06:44:54;7.03;;;2.70;;
19519;SDS011;9904;52.246;20.898;2022-07-06T06:47:20;6.23;;;2.50;;
19519;SDS011;9904;52.246;20.898;2022-07-06T06:49:47;11.37;;;3.07;;
19519;SDS011;9904;52.246;20.898;2022-07-06T06:52:13;8.97;;;2.47;;
19519;SDS011;9904;52.246;20.898;2022-07-06T06:55:00;9.27;;;2.57;;
19519;SDS011;9904;52.246;20.898;2022-07-06T06:57:26;4.90;;;2.83;;
19519;SDS011;9904;52.246;20.898;2022-07-06T06:59:55;6.10;;;3.10;;
19519;SDS011;9904;52.246;20.898;2022-07-06T07:02:21;8.50;;;2.97;;
19519;SDS011;9904;52.246;20.898;2022-07-06T07:04:48;8.93;;;3.03;;
19519;SDS011;9904;52.246;20.898;2022-07-06T07:07:15;4.10;;;2.50;;
19519;SDS011;9904;52.246;20.898;2022-07-06T07:09:41;5.60;;;3.57;;
19519;SDS011;9904;52.246;20.898;2022-07-06T07:12:08;7.47;;;2.90;;
19519;SDS011;9904;52.246;20.898;2022-07-06T07:14:36;11.10;;;4.00;;
19519;SDS011;9904;52.246;20.898;2022-07-06T07:17:03;6.57;;;3.13;;
19519;SDS011;9904;52.246;20.898;2022-07-06T07:19:29;10.00;;;3.23;;
19519;SDS011;9904;52.246;20.898;2022-07-06T07:21:56;13.70;;;3.70;;
19519;SDS011;9904;52.246;20.898;2022-07-06T07:24:22;6.57;;;3.60;;
19519;SDS011;9904;52.246;20.898;2022-07-06T07:26:49;8.57;;;3.60;;
19519;SDS011;9904;52.246;20.898;2022-07-06T07:29:15;7.50;;;3.13;;
19519;SDS011;9904;52.246;20.898;2022-07-06T07:31:42;7.93;;;3.47;;
19519;SDS011;9904;52.246;20.898;2022-07-06T07:34:08;7.30;;;3.60;;
19519;SDS011;9904;52.246;20.898;2022-07-06T07:36:35;9.13;;;3.20;;
19519;SDS011;9904;52.246;20.898;2022-07-06T07:39:02;12.90;;;3.90;;
19519;SDS011;9904;52.246;20.898;2022-07-06T07:41:29;7.20;;;2.93;;
19519;SDS011;9904;52.246;20.898;2022-07-06T07:43:55;6.67;;;2.60;;
19519;SDS011;9904;52.246;20.898;2022-07-06T07:46:22;6.30;;;2.30;;
19519;SDS011;9904;52.246;20.898;2022-07-06T07:48:49;8.13;;;2.47;;
19519;SDS011;9904;52.246;20.898;2022-07-06T07:51:15;6.27;;;1.90;;
19519;SDS011;9904;52.246;20.898;2022-07-06T07:53:42;9.47;;;1.93;;
19519;SDS011;9904;52.246;20.898;2022-07-06T07:56:09;7.90;;;2.10;;
19519;SDS011;9904;52.246;20.898;2022-07-06T07:58:35;6.00;;;1.70;;
19519;SDS011;9904;52.246;20.898;2022-07-06T08:01:02;7.23;;;1.50;;
19519;SDS011;9904;52.246;20.898;2022-07-06T08:03:30;5.33;;;1.60;;
19519;SDS011;9904;52.246;20.898;2022-07-06T08:05:58;6.33;;;1.53;;
19519;SDS011;9904;52.246;20.898;2022-07-06T08:08:25;6.57;;;1.40;;
19519;SDS011;9904;52.246;20.898;2022-07-06T08:10:52;8.10;;;1.60;;
19519;SDS011;9904;52.246;20.898;2022-07-06T08:13:39;1.87;;;1.10;;
19519;SDS011;9904;52.246;20.898;2022-07-06T08:16:06;5.33;;;1.77;;
19519;SDS011;9904;52.246;20.898;2022-07-06T08:18:32;5.00;;;1.43;;
19519;SDS011;9904;52.246;20.898;2022-07-06T08:21:00;7.00;;;1.40;;
19519;SDS011;9904;52.246;20.898;2022-07-06T08:23:46;3.90;;;1.40;;
19519;SDS011;9904;52.246;20.898;2022-07-06T08:26:13;5.80;;;1.20;;
19519;SDS011;9904;52.246;20.898;2022-07-06T08:28:43;5.60;;;1.17;;
19519;SDS011;9904;52.246;20.898;2022-07-06T08:31:09;2.67;;;0.97;;
19519;SDS011;9904;52.246;20.898;2022-07-06T08:33:56;3.10;;;1.20;;
19519;SDS011;9904;52.246;20.898;2022-07-06T08:36:23;4.97;;;1.27;;
19519;SDS011;9904;52.246;20.898;2022-07-06T08:38:52;6.20;;;1.20;;
19519;SDS011;9904;52.246;20.898;2022-07-06T08:41:21;5.83;;;1.30;;
19519;SDS011;9904;52.246;20.898;2022-07-06T08:43:51;2.83;;;1.10;;
19519;SDS011;9904;52.246;20.898;2022-07-06T08:46:19;2.63;;;0.90;;
19519;SDS011;9904;52.246;20.898;2022-07-06T08:48:46;2.47;;;1.20;;
19519;SDS011;9904;52.246;20.898;2022-07-06T08:51:13;3.83;;;1.23;;
19519;SDS011;9904;52.246;20.898;2022-07-06T08:53:43;1.37;;;0.77;;
19519;SDS011;9904;52.246;20.898;2022-07-06T08:56:10;4.03;;;1.00;;
19519;SDS011;9904;52.246;20.898;2022-07-06T08:58:37;3.47;;;1.07;;
19519;SDS011;9904;52.246;20.898;2022-07-06T09:01:10;5.00;;;1.43;;
19519;SDS011;9904;52.246;20.898;2022-07-06T09:03:41;4.43;;;0.90;;
19519;SDS011;9904;52.246;20.898;2022-07-06T09:06:08;3.70;;;0.70;;
19519;SDS011;9904;52.246;20.898;2022-07-06T09:08:36;2.20;;;0.60;;
19519;SDS011;9904;52.246;20.898;2022-07-06T09:11:03;6.63;;;0.70;;
19519;SDS011;9904;52.246;20.898;2022-07-06T09:13:30;2.23;;;0.80;;
19519;SDS011;9904;52.246;20.898;2022-07-06T09:16:00;2.43;;;0.80;;
19519;SDS011;9904;52.246;20.898;2022-07-06T09:18:55;2.63;;;0.50;;
19519;SDS011;9904;52.246;20.898;2022-07-06T09:21:25;2.10;;;0.70;;
19519;SDS011;9904;52.246;20.898;2022-07-06T09:23:56;2.80;;;0.90;;
19519;SDS011;9904;52.246;20.898;2022-07-06T09:26:25;2.13;;;0.80;;
19519;SDS011;9904;52.246;20.898;2022-07-06T09:28:52;1.77;;;0.90;;
19519;SDS011;9904;52.246;20.898;2022-07-06T09:31:21;3.03;;;0.73;;
19519;SDS011;9904;52.246;20.898;2022-07-06T09:36:40;2.83;;;0.80;;
19519;SDS011;9904;52.246;20.898;2022-07-06T09:39:23;3.37;;;0.73;;
19519;SDS011;9904;52.246;20.898;2022-07-06T09:41:58;2.33;;;0.80;;
19519;SDS011;9904;52.246;20.898;2022-07-06T09:44:32;3.03;;;0.97;;
19519;SDS011;9904;52.246;20.898;2022-07-06T09:47:00;1.30;;;0.63;;
19519;SDS011;9904;52.246;20.898;2022-07-06T09:49:29;5.20;;;1.63;;
19519;SDS011;9904;52.246;20.898;2022-07-06T09:51:56;2.77;;;0.63;;
19519;SDS011;9904;52.246;20.898;2022-07-06T09:54:24;2.47;;;0.50;;
19519;SDS011;9904;52.246;20.898;2022-07-06T09:56:51;2.20;;;0.60;;
19519;SDS011;9904;52.246;20.898;2022-07-06T09:59:20;0.70;;;0.50;;
19519;SDS011;9904;52.246;20.898;2022-07-06T10:01:49;2.70;;;0.60;;
19519;SDS011;9904;52.246;20.898;2022-07-06T10:04:17;6.07;;;0.70;;
19519;SDS011;9904;52.246;20.898;2022-07-06T10:06:46;1.63;;;0.50;;
19519;SDS011;9904;52.246;20.898;2022-07-06T10:09:14;3.93;;;1.13;;
19519;SDS011;9904;52.246;20.898;2022-07-06T10:11:42;3.73;;;0.50;;
19519;SDS011;9904;52.246;20.898;2022-07-06T10:14:10;1.50;;;0.60;;
19519;SDS011;9904;52.246;20.898;2022-07-06T10:16:39;2.13;;;0.60;;
19519;SDS011;9904;52.246;20.898;2022-07-06T10:19:07;4.00;;;0.70;;
19519;SDS011;9904;52.246;20.898;2022-07-06T10:21:38;2.47;;;0.60;;
19519;SDS011;9904;52.246;20.898;2022-07-06T10:24:06;1.50;;;0.80;;
19519;SDS011;9904;52.246;20.898;2022-07-06T10:26:33;3.20;;;0.73;;
19519;SDS011;9904;52.246;20.898;2022-07-06T10:29:01;4.73;;;0.90;;
19519;SDS011;9904;52.246;20.898;2022-07-06T10:31:29;2.63;;;0.90;;
19519;SDS011;9904;52.246;20.898;2022-07-06T10:33:57;3.37;;;0.67;;
19519;SDS011;9904;52.246;20.898;2022-07-06T10:36:25;3.73;;;0.77;;
19519;SDS011;9904;52.246;20.898;2022-07-06T10:38:52;1.13;;;0.60;;
19519;SDS011;9904;52.246;20.898;2022-07-06T10:41:18;2.03;;;0.80;;
19519;SDS011;9904;52.246;20.898;2022-07-06T10:43:56;2.23;;;0.50;;
19519;SDS011;9904;52.246;20.898;2022-07-06T10:46:27;1.23;;;0.50;;
19519;SDS011;9904;52.246;20.898;2022-07-06T10:48:55;4.00;;;0.73;;
19519;SDS011;9904;52.246;20.898;2022-07-06T10:51:27;2.50;;;0.70;;
19519;SDS011;9904;52.246;20.898;2022-07-06T10:53:55;1.87;;;0.53;;
19519;SDS011;9904;52.246;20.898;2022-07-06T10:59:19;2.10;;;0.70;;
19519;SDS011;9904;52.246;20.898;2022-07-06T11:04:39;2.60;;;0.80;;
19519;SDS011;9904;52.246;20.898;2022-07-06T11:07:07;4.40;;;0.90;;
19519;SDS011;9904;52.246;20.898;2022-07-06T11:09:35;3.03;;;1.10;;
19519;SDS011;9904;52.246;20.898;2022-07-06T11:14:46;4.20;;;0.70;;
19519;SDS011;9904;52.246;20.898;2022-07-06T11:17:14;1.77;;;0.70;;
19519;SDS011;9904;52.246;20.898;2022-07-06T11:19:47;1.87;;;0.80;;
19519;SDS011;9904;52.246;20.898;2022-07-06T11:22:21;2.90;;;0.50;;
19519;SDS011;9904;52.246;20.898;2022-07-06T11:24:50;7.63;;;0.80;;
19519;SDS011;9904;52.246;20.898;2022-07-06T11:27:18;3.73;;;1.03;;
19519;SDS011;9904;52.246;20.898;2022-07-06T11:29:44;2.90;;;0.70;;
19519;SDS011;9904;52.246;20.898;2022-07-06T11:32:11;2.63;;;0.60;;
19519;SDS011;9904;52.246;20.898;2022-07-06T11:34:41;4.37;;;0.87;;
19519;SDS011;9904;52.246;20.898;2022-07-06T11:37:11;4.63;;;1.00;;
19519;SDS011;9904;52.246;20.898;2022-07-06T11:39:40;4.83;;;0.90;;
19519;SDS011;9904;52.246;20.898;2022-07-06T11:42:08;3.47;;;0.73;;
19519;SDS011;9904;52.246;20.898;2022-07-06T11:44:36;3.47;;;0.50;;
19519;SDS011;9904;52.246;20.898;2022-07-06T11:47:04;1.00;;;0.50;;
19519;SDS011;9904;52.246;20.898;2022-07-06T11:49:33;1.70;;;0.60;;
19519;SDS011;9904;52.246;20.898;2022-07-06T11:52:08;6.40;;;0.83;;
19519;SDS011;9904;52.246;20.898;2022-07-06T11:54:36;1.90;;;0.80;;
19519;SDS011;9904;52.246;20.898;2022-07-06T11:57:04;2.20;;;0.70;;
19519;SDS011;9904;52.246;20.898;2022-07-06T11:59:34;4.90;;;0.90;;
19519;SDS011;9904;52.246;20.898;2022-07-06T12:02:02;2.40;;;0.87;;
19519;SDS011;9904;52.246;20.898;2022-07-06T12:04:33;6.87;;;0.90;;
19519;SDS011;9904;52.246;20.898;2022-07-06T12:07:03;2.57;;;0.70;;
19519;SDS011;9904;52.246;20.898;2022-07-06T12:09:31;4.70;;;1.03;;
19519;SDS011;9904;52.246;20.898;2022-07-06T12:11:58;1.90;;;0.80;;
19519;SDS011;9904;52.246;20.898;2022-07-06T12:14:29;4.37;;;0.77;;
19519;SDS011;9904;52.246;20.898;2022-07-06T12:16:59;3.03;;;0.57;;
19519;SDS011;9904;52.246;20.898;2022-07-06T12:19:29;3.87;;;0.73;;
19519;SDS011;9904;52.246;20.898;2022-07-06T12:21:56;1.57;;;0.70;;
19519;SDS011;9904;52.246;20.898;2022-07-06T12:24:23;2.83;;;0.50;;
19519;SDS011;9904;52.246;20.898;2022-07-06T12:26:54;1.60;;;0.53;;
19519;SDS011;9904;52.246;20.898;2022-07-06T12:29:21;3.33;;;0.50;;
19519;SDS011;9904;52.246;20.898;2022-07-06T12:31:49;5.20;;;0.60;;
19519;SDS011;9904;52.246;20.898;2022-07-06T12:34:25;2.53;;;0.90;;
19519;SDS011;9904;52.246;20.898;2022-07-06T12:36:54;3.10;;;0.67;;
19519;SDS011;9904;52.246;20.898;2022-07-06T12:39:26;4.57;;;0.87;;
19519;SDS011;9904;52.246;20.898;2022-07-06T12:42:03;4.97;;;0.80;;
19519;SDS011;9904;52.246;20.898;2022-07-06T12:44:31;6.13;;;0.83;;
19519;SDS011;9904;52.246;20.898;2022-07-06T12:47:04;3.40;;;0.80;;
19519;SDS011;9904;52.246;20.898;2022-07-06T12:49:36;3.40;;;0.70;;
19519;SDS011;9904;52.246;20.898;2022-07-06T12:54:34;2.20;;;1.13;;
19519;SDS011;9904;52.246;20.898;2022-07-06T12:57:07;2.33;;;0.70;;
19519;SDS011;9904;52.246;20.898;2022-07-06T13:00:00;1.73;;;0.70;;
19519;SDS011;9904;52.246;20.898;2022-07-06T13:02:31;6.63;;;0.93;;
19519;SDS011;9904;52.246;20.898;2022-07-06T13:05:21;1.67;;;0.60;;
19519;SDS011;9904;52.246;20.898;2022-07-06T13:07:53;3.47;;;0.70;;
19519;SDS011;9904;52.246;20.898;2022-07-06T13:10:21;2.00;;;0.70;;
19519;SDS011;9904;52.246;20.898;2022-07-06T13:12:49;2.40;;;0.90;;
19519;SDS011;9904;52.246;20.898;2022-07-06T13:15:16;1.83;;;0.60;;
19519;SDS011;9904;52.246;20.898;2022-07-06T13:17:42;4.33;;;0.70;;
19519;SDS011;9904;52.246;20.898;2022-07-06T13:20:12;2.37;;;0.70;;
19519;SDS011;9904;52.246;20.898;2022-07-06T13:22:39;2.83;;;0.60;;
19519;SDS011;9904;52.246;20.898;2022-07-06T13:25:06;3.03;;;0.83;;
19519;SDS011;9904;52.246;20.898;2022-07-06T13:27:34;2.97;;;0.80;;
19519;SDS011;9904;52.246;20.898;2022-07-06T13:30:01;4.30;;;0.80;;
19519;SDS011;9904;52.246;20.898;2022-07-06T13:32:27;5.17;;;0.87;;
19519;SDS011;9904;52.246;20.898;2022-07-06T13:34:54;3.50;;;0.70;;
19519;SDS011;9904;52.246;20.898;2022-07-06T13:37:21;3.33;;;1.00;;
19519;SDS011;9904;52.246;20.898;2022-07-06T13:39:47;4.30;;;0.90;;
19519;SDS011;9904;52.246;20.898;2022-07-06T13:42:14;5.07;;;0.70;;
19519;SDS011;9904;52.246;20.898;2022-07-06T13:44:41;2.20;;;0.63;;
19519;SDS011;9904;52.246;20.898;2022-07-06T13:47:07;2.80;;;0.90;;
19519;SDS011;9904;52.246;20.898;2022-07-06T13:49:34;5.07;;;0.73;;
19519;SDS011;9904;52.246;20.898;2022-07-06T13:52:01;3.00;;;0.90;;
19519;SDS011;9904;52.246;20.898;2022-07-06T13:54:31;1.87;;;0.60;;
19519;SDS011;9904;52.246;20.898;2022-07-06T13:57:01;1.70;;;0.63;;
19519;SDS011;9904;52.246;20.898;2022-07-06T13:59:28;7.73;;;0.90;;
19519;SDS011;9904;52.246;20.898;2022-07-06T14:01:55;3.03;;;0.80;;
19519;SDS011;9904;52.246;20.898;2022-07-06T14:04:22;3.60;;;0.90;;
19519;SDS011;9904;52.246;20.898;2022-07-06T14:06:48;3.17;;;0.90;;
19519;SDS011;9904;52.246;20.898;2022-07-06T14:09:15;7.23;;;0.90;;
19519;SDS011;9904;52.246;20.898;2022-07-06T14:11:42;2.73;;;0.93;;
19519;SDS011;9904;52.246;20.898;2022-07-06T14:14:08;3.50;;;0.87;;
19519;SDS011;9904;52.246;20.898;2022-07-06T14:16:35;2.27;;;0.80;;
19519;SDS011;9904;52.246;20.898;2022-07-06T14:19:02;5.93;;;1.03;;
19519;SDS011;9904;52.246;20.898;2022-07-06T14:21:28;5.30;;;0.70;;
19519;SDS011;9904;52.246;20.898;2022-07-06T14:23:55;4.27;;;0.60;;
19519;SDS011;9904;52.246;20.898;2022-07-06T14:26:22;4.00;;;0.80;;
19519;SDS011;9904;52.246;20.898;2022-07-06T14:28:48;5.63;;;1.03;;
19519;SDS011;9904;52.246;20.898;2022-07-06T14:31:15;3.10;;;1.03;;
19519;SDS011;9904;52.246;20.898;2022-07-06T14:33:47;1.27;;;0.70;;
19519;SDS011;9904;52.246;20.898;2022-07-06T14:36:14;3.87;;;0.87;;
19519;SDS011;9904;52.246;20.898;2022-07-06T14:38:41;2.83;;;0.67;;
19519;SDS011;9904;52.246;20.898;2022-07-06T14:41:08;2.50;;;0.63;;
19519;SDS011;9904;52.246;20.898;2022-07-06T14:43:34;1.33;;;0.60;;
19519;SDS011;9904;52.246;20.898;2022-07-06T14:46:02;3.20;;;0.73;;
19519;SDS011;9904;52.246;20.898;2022-07-06T14:48:29;2.10;;;0.80;;
19519;SDS011;9904;52.246;20.898;2022-07-06T14:50:56;5.20;;;0.90;;
19519;SDS011;9904;52.246;20.898;2022-07-06T14:53:24;2.83;;;0.70;;
19519;SDS011;9904;52.246;20.898;2022-07-06T14:55:51;5.13;;;1.60;;